sensor_id;sensor_type;location;lat;lon;timestamp;temperature;humidity
20422;DHT22;10370;53.102;18.034;2023-07-09T00:04:27;16.10;99.90
20422;DHT22;10370;53.102;18.034;2023-07-09T00:09:55;16.00;99.90
20422;DHT22;10370;53.102;18.034;2023-07-09T00:15:18;15.60;99.90
20422;DHT22;10370;53.102;18.034;2023-07-09T00:20:43;15.50;99.90
20422;DHT22;10370;53.102;18.034;2023-07-09T00:26:11;15.40;99.90
20422;DHT22;10370;53.102;18.034;2023-07-09T00:31:36;15.30;99.90
20422;DHT22;10370;53.102;18.034;2023-07-09T00:37:09;15.00;99.90
20422;DHT22;10370;53.102;18.034;2023-07-09T00:42:32;15.00;99.90
20422;DHT22;10370;53.102;18.034;2023-07-09T00:48:00;15.00;99.90
20422;DHT22;10370;53.102;18.034;2023-07-09T00:53:29;15.00;99.90
20422;DHT22;10370;53.102;18.034;2023-07-09T00:58:55;14.90;99.90
20422;DHT22;10370;53.102;18.034;2023-07-09T01:04:20;14.90;99.90
20422;DHT22;10370;53.102;18.034;2023-07-09T01:09:46;14.80;99.90
20422;DHT22;10370;53.102;18.034;2023-07-09T01:15:09;14.60;99.90
20422;DHT22;10370;53.102;18.034;2023-07-09T01:20:33;14.50;99.90
20422;DHT22;10370;53.102;18.034;2023-07-09T01:25:58;14.20;99.90
20422;DHT22;10370;53.102;18.034;2023-07-09T01:31:21;14.20;99.90
20422;DHT22;10370;53.102;18.034;2023-07-09T01:36:45;14.20;99.90
20422;DHT22;10370;53.102;18.034;2023-07-09T01:42:11;14.20;99.90
20422;DHT22;10370;53.102;18.034;2023-07-09T01:47:35;14.10;99.90
20422;DHT22;10370;53.102;18.034;2023-07-09T01:52:58;14.10;99.90
20422;DHT22;10370;53.102;18.034;2023-07-09T01:58:23;13.90;99.90
20422;DHT22;10370;53.102;18.034;2023-07-09T02:03:48;13.90;99.90
20422;DHT22;10370;53.102;18.034;2023-07-09T02:09:11;13.80;99.90
20422;DHT22;10370;53.102;18.034;2023-07-09T02:14:37;13.70;99.90
20422;DHT22;10370;53.102;18.034;2023-07-09T02:20:00;13.60;99.90
20422;DHT22;10370;53.102;18.034;2023-07-09T02:25:22;13.60;99.90
20422;DHT22;10370;53.102;18.034;2023-07-09T02:30:45;13.50;99.90
20422;DHT22;10370;53.102;18.034;2023-07-09T02:36:08;13.50;99.90
20422;DHT22;10370;53.102;18.034;2023-07-09T02:41:32;13.40;99.90
20422;DHT22;10370;53.102;18.034;2023-07-09T02:46:59;13.30;99.90
20422;DHT22;10370;53.102;18.034;2023-07-09T02:52:31;13.50;99.90
20422;DHT22;10370;53.102;18.034;2023-07-09T02:57:55;13.60;99.90
20422;DHT22;10370;53.102;18.034;2023-07-09T03:03:21;13.70;99.90
20422;DHT22;10370;53.102;18.034;2023-07-09T03:08:47;13.90;99.90
20422;DHT22;10370;53.102;18.034;2023-07-09T03:14:14;14.00;99.90
20422;DHT22;10370;53.102;18.034;2023-07-09T03:19:39;14.20;99.90
20422;DHT22;10370;53.102;18.034;2023-07-09T03:25:06;14.30;99.90
20422;DHT22;10370;53.102;18.034;2023-07-09T03:30:33;14.30;99.90
20422;DHT22;10370;53.102;18.034;2023-07-09T03:35:55;14.20;99.90
20422;DHT22;10370;53.102;18.034;2023-07-09T03:41:18;14.10;99.90
20422;DHT22;10370;53.102;18.034;2023-07-09T03:46:41;14.20;99.90
20422;DHT22;10370;53.102;18.034;2023-07-09T03:52:04;14.20;99.90
20422;DHT22;10370;53.102;18.034;2023-07-09T03:57:48;14.50;99.90
20422;DHT22;10370;53.102;18.034;2023-07-09T04:03:10;14.80;99.90
20422;DHT22;10370;53.102;18.034;2023-07-09T04:08:33;15.00;99.90
20422;DHT22;10370;53.102;18.034;2023-07-09T04:13:56;15.20;99.90
20422;DHT22;10370;53.102;18.034;2023-07-09T04:19:18;15.50;99.90
20422;DHT22;10370;53.102;18.034;2023-07-09T04:24:41;15.80;99.90
20422;DHT22;10370;53.102;18.034;2023-07-09T04:30:09;16.10;99.90
20422;DHT22;10370;53.102;18.034;2023-07-09T04:35:32;16.40;99.90
20422;DHT22;10370;53.102;18.034;2023-07-09T04:40:55;16.60;99.90
20422;DHT22;10370;53.102;18.034;2023-07-09T04:46:17;17.00;99.90
20422;DHT22;10370;53.102;18.034;2023-07-09T04:51:40;17.60;99.90
20422;DHT22;10370;53.102;18.034;2023-07-09T04:57:03;18.90;99.90
20422;DHT22;10370;53.102;18.034;2023-07-09T05:02:25;19.90;99.90
20422;DHT22;10370;53.102;18.034;2023-07-09T05:07:48;21.20;99.90
20422;DHT22;10370;53.102;18.034;2023-07-09T05:13:13;22.40;99.90
20422;DHT22;10370;53.102;18.034;2023-07-09T05:18:36;23.90;99.90
20422;DHT22;10370;53.102;18.034;2023-07-09T05:23:59;24.90;99.90
20422;DHT22;10370;53.102;18.034;2023-07-09T05:29:22;26.60;99.90
20422;DHT22;10370;53.102;18.034;2023-07-09T05:34:47;27.30;99.90
20422;DHT22;10370;53.102;18.034;2023-07-09T05:40:12;29.30;99.30
20422;DHT22;10370;53.102;18.034;2023-07-09T05:45:41;29.50;94.70
20422;DHT22;10370;53.102;18.034;2023-07-09T05:51:04;30.80;92.20
20422;DHT22;10370;53.102;18.034;2023-07-09T05:56:26;31.60;85.50
20422;DHT22;10370;53.102;18.034;2023-07-09T06:01:49;31.50;77.90
20422;DHT22;10370;53.102;18.034;2023-07-09T06:07:12;32.30;75.20
20422;DHT22;10370;53.102;18.034;2023-07-09T06:12:36;32.50;67.40
20422;DHT22;10370;53.102;18.034;2023-07-09T06:17:58;32.10;65.20
20422;DHT22;10370;53.102;18.034;2023-07-09T06:23:21;31.10;65.10
20422;DHT22;10370;53.102;18.034;2023-07-09T06:28:44;27.60;74.70
20422;DHT22;10370;53.102;18.034;2023-07-09T06:34:06;24.70;84.20
20422;DHT22;10370;53.102;18.034;2023-07-09T06:39:29;23.20;89.80
20422;DHT22;10370;53.102;18.034;2023-07-09T06:44:52;23.00;91.90
20422;DHT22;10370;53.102;18.034;2023-07-09T06:50:15;22.70;93.20
20422;DHT22;10370;53.102;18.034;2023-07-09T06:55:38;22.20;94.10
20422;DHT22;10370;53.102;18.034;2023-07-09T07:01:02;22.10;94.10
20422;DHT22;10370;53.102;18.034;2023-07-09T07:06:28;22.50;94.80
20422;DHT22;10370;53.102;18.034;2023-07-09T07:11:50;22.30;95.00
20422;DHT22;10370;53.102;18.034;2023-07-09T07:17:13;22.30;94.30
20422;DHT22;10370;53.102;18.034;2023-07-09T07:22:37;22.20;94.40
20422;DHT22;10370;53.102;18.034;2023-07-09T07:28:00;22.40;95.10
20422;DHT22;10370;53.102;18.034;2023-07-09T07:33:23;22.40;95.50
20422;DHT22;10370;53.102;18.034;2023-07-09T07:38:45;22.50;95.60
20422;DHT22;10370;53.102;18.034;2023-07-09T07:44:11;22.50;94.70
20422;DHT22;10370;53.102;18.034;2023-07-09T07:49:34;22.40;93.50
20422;DHT22;10370;53.102;18.034;2023-07-09T07:54:57;22.40;93.50
20422;DHT22;10370;53.102;18.034;2023-07-09T08:00:20;22.50;94.10
20422;DHT22;10370;53.102;18.034;2023-07-09T08:05:47;22.60;95.40
20422;DHT22;10370;53.102;18.034;2023-07-09T08:11:10;22.80;95.10
20422;DHT22;10370;53.102;18.034;2023-07-09T08:16:33;22.80;94.30
20422;DHT22;10370;53.102;18.034;2023-07-09T08:21:56;22.90;94.10
20422;DHT22;10370;53.102;18.034;2023-07-09T08:27:23;23.00;93.60
20422;DHT22;10370;53.102;18.034;2023-07-09T08:32:46;23.10;92.80
20422;DHT22;10370;53.102;18.034;2023-07-09T08:38:09;23.10;91.60
20422;DHT22;10370;53.102;18.034;2023-07-09T08:55:25;23.40;91.00
20422;DHT22;10370;53.102;18.034;2023-07-09T09:01:45;23.40;92.20
20422;DHT22;10370;53.102;18.034;2023-07-09T09:06:40;23.60;91.20
20422;DHT22;10370;53.102;18.034;2023-07-09T09:12:11;23.80;91.30
20422;DHT22;10370;53.102;18.034;2023-07-09T09:17:37;23.90;90.30
20422;DHT22;10370;53.102;18.034;2023-07-09T09:28:29;24.10;89.60
20422;DHT22;10370;53.102;18.034;2023-07-09T09:33:54;24.00;87.30
20422;DHT22;10370;53.102;18.034;2023-07-09T09:39:17;24.20;86.40
20422;DHT22;10370;53.102;18.034;2023-07-09T09:44:44;24.30;87.40
20422;DHT22;10370;53.102;18.034;2023-07-09T09:50:14;24.40;84.60
20422;DHT22;10370;53.102;18.034;2023-07-09T09:55:38;24.40;84.50
20422;DHT22;10370;53.102;18.034;2023-07-09T10:01:01;24.70;84.00
20422;DHT22;10370;53.102;18.034;2023-07-09T10:06:42;24.60;83.00
20422;DHT22;10370;53.102;18.034;2023-07-09T10:12:16;24.70;81.50
20422;DHT22;10370;53.102;18.034;2023-07-09T10:18:34;25.00;84.90
20422;DHT22;10370;53.102;18.034;2023-07-09T10:29:51;25.00;77.90
20422;DHT22;10370;53.102;18.034;2023-07-09T10:35:53;25.00;79.90
20422;DHT22;10370;53.102;18.034;2023-07-09T10:41:21;25.10;77.80
20422;DHT22;10370;53.102;18.034;2023-07-09T10:46:58;25.30;76.60
20422;DHT22;10370;53.102;18.034;2023-07-09T10:52:39;25.20;77.60
20422;DHT22;10370;53.102;18.034;2023-07-09T11:04:33;25.60;79.60
20422;DHT22;10370;53.102;18.034;2023-07-09T11:09:59;25.50;77.80
20422;DHT22;10370;53.102;18.034;2023-07-09T11:15:30;25.70;78.30
20422;DHT22;10370;53.102;18.034;2023-07-09T11:21:05;25.70;76.80
20422;DHT22;10370;53.102;18.034;2023-07-09T11:26:35;26.00;75.90
20422;DHT22;10370;53.102;18.034;2023-07-09T11:32:08;26.00;73.50
20422;DHT22;10370;53.102;18.034;2023-07-09T11:37:31;26.10;74.90
20422;DHT22;10370;53.102;18.034;2023-07-09T11:42:56;26.20;76.50
20422;DHT22;10370;53.102;18.034;2023-07-09T11:48:26;26.00;77.00
20422;DHT22;10370;53.102;18.034;2023-07-09T11:53:53;26.30;73.60
20422;DHT22;10370;53.102;18.034;2023-07-09T11:59:16;26.30;76.90
20422;DHT22;10370;53.102;18.034;2023-07-09T12:04:39;26.40;75.30
20422;DHT22;10370;53.102;18.034;2023-07-09T12:10:15;26.40;73.50
20422;DHT22;10370;53.102;18.034;2023-07-09T12:15:40;26.70;74.90
20422;DHT22;10370;53.102;18.034;2023-07-09T12:21:02;26.70;71.60
20422;DHT22;10370;53.102;18.034;2023-07-09T12:26:25;26.70;71.30
20422;DHT22;10370;53.102;18.034;2023-07-09T12:31:48;26.70;71.20
20422;DHT22;10370;53.102;18.034;2023-07-09T12:37:14;26.70;71.20
20422;DHT22;10370;53.102;18.034;2023-07-09T12:42:37;26.80;70.90
20422;DHT22;10370;53.102;18.034;2023-07-09T12:48:00;27.10;69.90
20422;DHT22;10370;53.102;18.034;2023-07-09T12:53:26;27.10;69.40
20422;DHT22;10370;53.102;18.034;2023-07-09T12:58:49;27.00;68.00
20422;DHT22;10370;53.102;18.034;2023-07-09T13:04:13;27.10;67.40
20422;DHT22;10370;53.102;18.034;2023-07-09T13:09:35;27.00;66.50
20422;DHT22;10370;53.102;18.034;2023-07-09T13:14:58;27.20;68.80
20422;DHT22;10370;53.102;18.034;2023-07-09T13:20:22;27.20;68.20
20422;DHT22;10370;53.102;18.034;2023-07-09T13:25:45;27.30;70.90
20422;DHT22;10370;53.102;18.034;2023-07-09T13:31:15;27.40;68.80
20422;DHT22;10370;53.102;18.034;2023-07-09T13:36:41;27.40;68.60
20422;DHT22;10370;53.102;18.034;2023-07-09T13:42:05;27.40;67.50
20422;DHT22;10370;53.102;18.034;2023-07-09T13:47:34;27.30;66.90
20422;DHT22;10370;53.102;18.034;2023-07-09T13:52:58;27.40;69.00
20422;DHT22;10370;53.102;18.034;2023-07-09T13:58:25;27.50;68.70
20422;DHT22;10370;53.102;18.034;2023-07-09T14:03:48;27.60;71.00
20422;DHT22;10370;53.102;18.034;2023-07-09T14:09:11;27.80;69.00
20422;DHT22;10370;53.102;18.034;2023-07-09T14:14:34;27.60;69.10
20422;DHT22;10370;53.102;18.034;2023-07-09T14:19:57;27.80;72.30
20422;DHT22;10370;53.102;18.034;2023-07-09T14:25:24;28.00;71.40
20422;DHT22;10370;53.102;18.034;2023-07-09T14:30:49;27.70;70.70
20422;DHT22;10370;53.102;18.034;2023-07-09T14:36:13;27.60;71.30
20422;DHT22;10370;53.102;18.034;2023-07-09T14:41:36;27.70;71.80
20422;DHT22;10370;53.102;18.034;2023-07-09T14:47:00;27.80;72.00
20422;DHT22;10370;53.102;18.034;2023-07-09T14:52:24;27.60;70.30
20422;DHT22;10370;53.102;18.034;2023-07-09T14:57:48;27.70;72.30
20422;DHT22;10370;53.102;18.034;2023-07-09T15:03:14;27.50;70.50
20422;DHT22;10370;53.102;18.034;2023-07-09T15:08:39;27.60;71.60
20422;DHT22;10370;53.102;18.034;2023-07-09T15:14:02;27.60;70.70
20422;DHT22;10370;53.102;18.034;2023-07-09T15:19:25;27.40;70.60
20422;DHT22;10370;53.102;18.034;2023-07-09T15:24:48;27.40;71.10
20422;DHT22;10370;53.102;18.034;2023-07-09T15:30:23;27.30;70.60
20422;DHT22;10370;53.102;18.034;2023-07-09T15:35:48;27.40;71.90
20422;DHT22;10370;53.102;18.034;2023-07-09T15:41:12;27.50;70.20
20422;DHT22;10370;53.102;18.034;2023-07-09T15:46:35;27.50;71.40
20422;DHT22;10370;53.102;18.034;2023-07-09T15:51:58;27.40;70.20
20422;DHT22;10370;53.102;18.034;2023-07-09T15:57:24;27.30;71.10
20422;DHT22;10370;53.102;18.034;2023-07-09T16:03:04;27.40;71.60
20422;DHT22;10370;53.102;18.034;2023-07-09T16:08:42;27.30;71.90
20422;DHT22;10370;53.102;18.034;2023-07-09T16:19:45;27.30;71.20
20422;DHT22;10370;53.102;18.034;2023-07-09T16:25:18;27.30;72.20
20422;DHT22;10370;53.102;18.034;2023-07-09T16:30:42;27.30;72.00
20422;DHT22;10370;53.102;18.034;2023-07-09T16:36:07;27.30;71.70
20422;DHT22;10370;53.102;18.034;2023-07-09T16:41:31;27.10;71.30
20422;DHT22;10370;53.102;18.034;2023-07-09T16:46:54;27.10;72.00
20422;DHT22;10370;53.102;18.034;2023-07-09T16:52:22;27.20;71.50
20422;DHT22;10370;53.102;18.034;2023-07-09T16:57:55;27.20;72.60
20422;DHT22;10370;53.102;18.034;2023-07-09T17:03:18;27.20;72.30
20422;DHT22;10370;53.102;18.034;2023-07-09T17:08:41;27.20;72.70
20422;DHT22;10370;53.102;18.034;2023-07-09T17:14:10;27.10;72.20
20422;DHT22;10370;53.102;18.034;2023-07-09T17:19:40;27.10;73.40
20422;DHT22;10370;53.102;18.034;2023-07-09T17:25:32;27.00;73.20
20422;DHT22;10370;53.102;18.034;2023-07-09T17:30:57;26.90;74.40
20422;DHT22;10370;53.102;18.034;2023-07-09T17:36:21;26.80;73.60
20422;DHT22;10370;53.102;18.034;2023-07-09T17:41:48;26.70;74.70
20422;DHT22;10370;53.102;18.034;2023-07-09T17:47:17;26.60;74.40
20422;DHT22;10370;53.102;18.034;2023-07-09T17:52:42;26.50;74.70
20422;DHT22;10370;53.102;18.034;2023-07-09T17:58:10;26.30;75.40
20422;DHT22;10370;53.102;18.034;2023-07-09T18:03:34;26.30;75.60
20422;DHT22;10370;53.102;18.034;2023-07-09T18:08:58;26.20;75.50
20422;DHT22;10370;53.102;18.034;2023-07-09T18:14:33;26.20;76.40
20422;DHT22;10370;53.102;18.034;2023-07-09T18:19:58;26.10;75.80
20422;DHT22;10370;53.102;18.034;2023-07-09T18:25:28;26.00;76.70
20422;DHT22;10370;53.102;18.034;2023-07-09T18:30:53;25.80;77.20
20422;DHT22;10370;53.102;18.034;2023-07-09T18:36:32;25.60;78.00
20422;DHT22;10370;53.102;18.034;2023-07-09T18:41:56;25.40;78.80
20422;DHT22;10370;53.102;18.034;2023-07-09T18:47:19;25.10;79.90
20422;DHT22;10370;53.102;18.034;2023-07-09T18:52:42;25.00;80.50
20422;DHT22;10370;53.102;18.034;2023-07-09T18:58:17;24.70;81.00
20422;DHT22;10370;53.102;18.034;2023-07-09T19:03:41;24.50;82.20
20422;DHT22;10370;53.102;18.034;2023-07-09T19:09:20;24.30;83.10
20422;DHT22;10370;53.102;18.034;2023-07-09T19:14:43;24.10;83.50
20422;DHT22;10370;53.102;18.034;2023-07-09T19:20:25;23.80;86.20
20422;DHT22;10370;53.102;18.034;2023-07-09T19:25:49;23.60;85.00
20422;DHT22;10370;53.102;18.034;2023-07-09T19:31:11;23.30;87.50
20422;DHT22;10370;53.102;18.034;2023-07-09T19:36:35;23.10;87.40
20422;DHT22;10370;53.102;18.034;2023-07-09T19:42:09;22.90;88.00
20422;DHT22;10370;53.102;18.034;2023-07-09T19:47:35;22.70;89.60
20422;DHT22;10370;53.102;18.034;2023-07-09T19:52:59;22.40;91.00
20422;DHT22;10370;53.102;18.034;2023-07-09T19:58:22;21.80;92.60
20422;DHT22;10370;53.102;18.034;2023-07-09T20:03:46;21.70;93.20
20422;DHT22;10370;53.102;18.034;2023-07-09T20:09:14;21.50;94.00
20422;DHT22;10370;53.102;18.034;2023-07-09T20:14:37;21.40;93.20
20422;DHT22;10370;53.102;18.034;2023-07-09T20:20:01;21.40;93.30
20422;DHT22;10370;53.102;18.034;2023-07-09T20:25:25;21.30;93.40
20422;DHT22;10370;53.102;18.034;2023-07-09T20:30:49;21.10;93.20
20422;DHT22;10370;53.102;18.034;2023-07-09T20:36:13;21.00;93.80
20422;DHT22;10370;53.102;18.034;2023-07-09T20:41:41;20.80;94.90
20422;DHT22;10370;53.102;18.034;2023-07-09T20:47:17;20.70;94.00
20422;DHT22;10370;53.102;18.034;2023-07-09T20:52:50;20.60;94.80
20422;DHT22;10370;53.102;18.034;2023-07-09T20:58:18;20.50;95.00
20422;DHT22;10370;53.102;18.034;2023-07-09T21:03:41;20.50;94.50
20422;DHT22;10370;53.102;18.034;2023-07-09T21:09:31;20.40;95.10
20422;DHT22;10370;53.102;18.034;2023-07-09T21:14:54;20.10;97.20
20422;DHT22;10370;53.102;18.034;2023-07-09T21:20:18;19.50;99.90
20422;DHT22;10370;53.102;18.034;2023-07-09T21:25:41;19.10;99.90
20422;DHT22;10370;53.102;18.034;2023-07-09T21:31:08;19.00;99.90
20422;DHT22;10370;53.102;18.034;2023-07-09T21:36:33;19.00;99.90
20422;DHT22;10370;53.102;18.034;2023-07-09T21:41:56;18.90;99.90
20422;DHT22;10370;53.102;18.034;2023-07-09T21:47:19;18.90;99.90
20422;DHT22;10370;53.102;18.034;2023-07-09T21:52:45;19.10;99.90
20422;DHT22;10370;53.102;18.034;2023-07-09T21:58:11;19.20;99.90
20422;DHT22;10370;53.102;18.034;2023-07-09T22:03:35;19.20;99.90
20422;DHT22;10370;53.102;18.034;2023-07-09T22:08:58;19.20;99.90
20422;DHT22;10370;53.102;18.034;2023-07-09T22:14:24;19.20;99.90
20422;DHT22;10370;53.102;18.034;2023-07-09T22:19:46;19.20;99.90
20422;DHT22;10370;53.102;18.034;2023-07-09T22:25:15;19.20;99.90
20422;DHT22;10370;53.102;18.034;2023-07-09T22:30:38;18.80;99.90
20422;DHT22;10370;53.102;18.034;2023-07-09T22:36:00;18.20;99.90
20422;DHT22;10370;53.102;18.034;2023-07-09T22:41:23;17.80;99.90
20422;DHT22;10370;53.102;18.034;2023-07-09T22:46:46;17.70;99.90
20422;DHT22;10370;53.102;18.034;2023-07-09T22:52:16;17.60;99.90
20422;DHT22;10370;53.102;18.034;2023-07-09T22:57:40;17.60;99.90
20422;DHT22;10370;53.102;18.034;2023-07-09T23:03:27;17.60;99.90
20422;DHT22;10370;53.102;18.034;2023-07-09T23:08:53;17.70;99.90
20422;DHT22;10370;53.102;18.034;2023-07-09T23:14:23;17.40;99.90
20422;DHT22;10370;53.102;18.034;2023-07-09T23:19:49;17.20;99.90
20422;DHT22;10370;53.102;18.034;2023-07-09T23:25:12;17.20;99.90
20422;DHT22;10370;53.102;18.034;2023-07-09T23:30:35;17.40;99.90
20422;DHT22;10370;53.102;18.034;2023-07-09T23:36:00;17.40;99.90
20422;DHT22;10370;53.102;18.034;2023-07-09T23:41:28;17.30;99.90
20422;DHT22;10370;53.102;18.034;2023-07-09T23:46:51;17.40;99.90
20422;DHT22;10370;53.102;18.034;2023-07-09T23:52:14;17.60;99.90
20422;DHT22;10370;53.102;18.034;2023-07-09T23:57:38;17.70;99.90
